Pagrindinis puslapis
METAR-TAF:

METAR-TAF

Oro uostai :

Peskara, Italija

platuma: 42-26N, ilguma: 014-12E, Aukštis: 10 m

Dabartinis oras

Ataskaita buvo paskelbta 40 minutes, ne 12:50 UTC
Vėjas 8 kt iš Šiaurės Rytų
Temperatūra 17°C
Drėgmė 45%
Slėgis 1031 hPa
Matomumas 10 km arba daugiau

METAR: LIBP 251250Z AUTO 04008KT 9999 NCD 17/05 Q1031

Laikas: 14:30 (13:30 UTC)

Prognozė

Ataskaita buvo paskelbta 2 valandos ir 30 minutes, ne 11:00 UTC
Prognozė galioja nuo 25 metu 12 UTC su 26 metu 12 UTC
Vėjas 5 kt nuo kintamojo kryptimis
Matomumas 10 km arba daugiau
nėra debesų žemiau 1500 m ir nėra kamuolinių lietaus debesų
Laikinai
nuo 26 metu 00 UTC su 26 metu 06 UTC
Matomumas: 3000 m
Rūkas lopais

TAF: LIBP 251100Z 2512/2612 VRB05KT CAVOK TEMPO 2600/2606 3000 BCFG

Orai ataskaitas ir orų prognozės (METAR, TAF).

turimą stotys yra geltonos ir raudonos taškus žemėlapyje.

Perkelti pele per norėdami pamatyti stoties vardą.

Tada spustelėkite, norėdami matyti oro stebėjimo ir prognozės.

Norėdami pakeisti žemėlapį: spustelėkite ant žalios mygtukų su juodo kryžiaus žemyn,; žalią mygtuką su brūkšneliu, jei norite nutolinti; arba žalių rodyklių gretimoms žemėlapius.


METAR-TAF: